Niuzhuang, China
Current Conditions -  °F | °C
As of 9:00 AM on Saturday 29 Nov 2014 (Local Time) from ZYTX Reporting Station
Haze Haze  
Wind Chill: 24°   Ceiling: Unl
Heat Index: 30°   Visibility: 1.5mi
Dew Point: 25°   Wind: 7mph
Humidity: 80%   Direction: 120°ESE
Pressure: 30.18"   Gusts: NA
Location:  40.97°N, 122.53°E
Report Text: ZYTX 290100Z 12003MPS 2500 BR NSC M01/M04 Q1022 BECMG TL02003500
Loading
Personal Weather Stations






























Interactive Weather Map New forecast layout! Learn more

10-Day Weather Forecast

Advertisements
Track Severe Weather on mobile